createdAt,value
2022-08-29T00:00:25.879Z,6.50
2022-08-29T00:03:08.980Z,6.60
2022-08-29T00:05:40.091Z,6.30
2022-08-29T00:08:10.705Z,6.90
2022-08-29T00:10:40.086Z,6.90
2022-08-29T00:13:10.158Z,6.00
2022-08-29T00:15:45.140Z,6.70
2022-08-29T00:18:16.450Z,6.10
2022-08-29T00:20:45.862Z,7.10
2022-08-29T00:23:14.319Z,7.40
2022-08-29T00:25:42.483Z,7.30
2022-08-29T00:28:10.967Z,7.60
2022-08-29T00:30:40.210Z,7.40
2022-08-29T00:33:09.529Z,6.90
2022-08-29T00:35:40.474Z,7.00
2022-08-29T00:38:11.169Z,7.10
2022-08-29T00:40:47.880Z,7.20
2022-08-29T00:43:24.904Z,7.80
2022-08-29T00:46:39.120Z,7.60
2022-08-29T00:49:12.019Z,7.40
2022-08-29T00:51:41.559Z,8.40
2022-08-29T00:54:12.011Z,8.00
2022-08-29T00:56:41.933Z,8.10
2022-08-29T00:59:20.525Z,7.90
2022-08-29T01:01:48.786Z,8.30
2022-08-29T01:04:23.591Z,8.10
2022-08-29T01:06:54.201Z,8.40
2022-08-29T01:09:24.275Z,8.40
2022-08-29T01:12:11.998Z,8.00
2022-08-29T01:14:45.961Z,8.60
2022-08-29T01:17:18.263Z,9.70
2022-08-29T01:19:54.992Z,7.70
2022-08-29T01:23:03.349Z,9.10
2022-08-29T01:25:37.016Z,8.00
2022-08-29T01:28:15.389Z,7.70
2022-08-29T01:31:05.261Z,8.20
2022-08-29T01:33:50.725Z,9.20
2022-08-29T01:36:32.830Z,10.50
2022-08-29T01:39:01.184Z,11.00
2022-08-29T01:41:30.478Z,10.40
2022-08-29T01:43:58.597Z,10.90
2022-08-29T01:46:34.991Z,10.30
2022-08-29T01:49:09.005Z,11.00
2022-08-29T01:51:37.859Z,11.10
2022-08-29T01:54:07.590Z,11.70
2022-08-29T01:56:42.245Z,11.90
2022-08-29T01:59:14.407Z,12.60
2022-08-29T02:01:52.494Z,13.10
2022-08-29T02:04:21.291Z,12.00
2022-08-29T02:06:49.578Z,13.10
2022-08-29T02:09:18.178Z,13.30
2022-08-29T02:11:46.656Z,13.10
2022-08-29T02:14:19.446Z,13.40
2022-08-29T02:16:48.274Z,13.60
2022-08-29T02:19:17.503Z,13.70
2022-08-29T02:21:45.922Z,12.70
2022-08-29T02:24:25.590Z,13.10
2022-08-29T02:26:56.198Z,12.90
2022-08-29T02:29:26.691Z,13.50
2022-08-29T02:32:09.126Z,13.10
2022-08-29T02:34:38.030Z,13.10
2022-08-29T02:37:06.412Z,13.80
2022-08-29T02:39:35.178Z,12.50
2022-08-29T02:42:13.061Z,13.10
2022-08-29T02:44:40.950Z,14.50
2022-08-29T02:47:09.728Z,13.40
2022-08-29T02:49:39.617Z,13.90
2022-08-29T02:52:08.776Z,14.70
2022-08-29T02:54:37.564Z,15.20
2022-08-29T02:57:06.291Z,15.80
2022-08-29T02:59:34.280Z,13.90
2022-08-29T03:02:02.922Z,13.70
2022-08-29T03:04:31.430Z,12.90
2022-08-29T03:06:59.430Z,14.50
2022-08-29T03:09:27.555Z,13.50
2022-08-29T03:11:56.650Z,15.20
2022-08-29T03:14:25.586Z,13.90
2022-08-29T03:16:53.818Z,13.70
2022-08-29T03:19:23.063Z,13.50
2022-08-29T03:21:51.347Z,13.80
2022-08-29T03:24:26.916Z,14.30
2022-08-29T03:26:56.770Z,14.30
2022-08-29T03:29:25.827Z,15.40
2022-08-29T03:31:58.681Z,12.90
2022-08-29T03:34:28.496Z,15.90
2022-08-29T03:36:56.555Z,16.50
2022-08-29T03:39:25.496Z,15.30
2022-08-29T03:41:53.991Z,16.90
2022-08-29T03:44:22.695Z,15.10
2022-08-29T03:46:50.519Z,15.00
2022-08-29T03:49:18.706Z,14.60
2022-08-29T03:51:46.664Z,13.70
2022-08-29T03:54:14.582Z,12.90
2022-08-29T03:56:42.938Z,12.80
2022-08-29T03:59:11.468Z,13.30
2022-08-29T04:01:39.692Z,11.80
2022-08-29T04:04:08.754Z,11.10
2022-08-29T04:06:37.095Z,10.80
2022-08-29T04:09:05.714Z,9.80
2022-08-29T04:11:33.813Z,8.60
2022-08-29T04:14:02.363Z,8.10
2022-08-29T04:16:31.363Z,6.80
2022-08-29T04:18:59.984Z,7.10
2022-08-29T04:21:28.110Z,3.90
2022-08-29T04:23:57.872Z,4.50
2022-08-29T04:26:36.550Z,5.10
2022-08-29T04:29:06.982Z,4.70
2022-08-29T04:31:36.719Z,4.60
2022-08-29T04:34:07.049Z,3.90
2022-08-29T04:36:36.558Z,3.90
2022-08-29T04:39:05.880Z,3.30
2022-08-29T04:41:33.963Z,2.90
2022-08-29T04:44:04.058Z,3.30
2022-08-29T04:46:32.879Z,4.00
2022-08-29T04:49:04.226Z,3.60
2022-08-29T04:51:34.743Z,3.30
2022-08-29T04:54:05.224Z,3.50
2022-08-29T04:56:34.796Z,3.60
2022-08-29T04:59:03.230Z,3.70
2022-08-29T05:01:32.138Z,3.70
2022-08-29T05:04:00.300Z,5.10
2022-08-29T05:06:28.986Z,5.30
2022-08-29T05:08:59.673Z,5.00
2022-08-29T05:11:31.815Z,5.40
2022-08-29T05:14:00.689Z,5.60
2022-08-29T05:16:34.556Z,6.00
2022-08-29T05:19:06.479Z,5.80
2022-08-29T05:21:38.112Z,6.10
2022-08-29T05:24:10.054Z,5.40
2022-08-29T05:26:44.478Z,6.60
2022-08-29T05:29:13.400Z,7.30
2022-08-29T05:31:44.679Z,7.40
2022-08-29T05:34:34.456Z,7.10
2022-08-29T05:37:09.493Z,6.40
2022-08-29T05:39:39.272Z,6.50
2022-08-29T05:42:08.954Z,6.20
2022-08-29T05:44:37.195Z,8.00
2022-08-29T05:47:07.924Z,8.00
2022-08-29T05:49:41.457Z,7.10
2022-08-29T05:52:10.997Z,7.00
2022-08-29T05:54:41.692Z,5.80
2022-08-29T05:57:16.631Z,6.10
2022-08-29T05:59:48.773Z,6.80
2022-08-29T06:02:18.394Z,6.30
2022-08-29T06:04:46.714Z,7.20
2022-08-29T06:07:15.269Z,7.10
2022-08-29T06:09:44.282Z,7.20
2022-08-29T06:12:15.179Z,8.70
2022-08-29T06:14:50.244Z,8.70
2022-08-29T06:17:20.191Z,9.70
2022-08-29T06:19:52.306Z,10.10
2022-08-29T06:22:21.097Z,10.40
2022-08-29T06:24:57.518Z,9.80
2022-08-29T06:27:25.956Z,11.20
2022-08-29T06:29:54.419Z,10.70
2022-08-29T06:32:22.391Z,10.60
2022-08-29T06:34:50.561Z,10.00
2022-08-29T06:37:19.004Z,10.00
2022-08-29T06:39:46.938Z,10.40
2022-08-29T06:42:15.113Z,10.50
2022-08-29T06:44:44.575Z,10.30
2022-08-29T06:47:13.138Z,11.40
2022-08-29T06:49:41.705Z,10.70
2022-08-29T06:52:09.743Z,10.90
2022-08-29T06:54:38.634Z,11.00
2022-08-29T06:57:06.882Z,10.50
2022-08-29T06:59:35.594Z,10.40
2022-08-29T07:02:03.851Z,8.60
2022-08-29T07:04:31.889Z,7.70
2022-08-29T07:07:00.314Z,9.10
2022-08-29T07:09:31.352Z,10.10
2022-08-29T07:11:59.251Z,9.90
2022-08-29T07:14:27.663Z,11.00
2022-08-29T07:16:56.799Z,10.90
2022-08-29T07:19:24.760Z,9.80
2022-08-29T07:21:57.980Z,6.90
2022-08-29T07:24:27.190Z,5.70
2022-08-29T07:26:55.328Z,5.90
2022-08-29T07:29:23.694Z,5.10
2022-08-29T07:31:52.287Z,5.20
2022-08-29T07:34:20.914Z,5.90
2022-08-29T07:36:49.207Z,5.20
2022-08-29T07:39:19.376Z,5.30
2022-08-29T07:41:47.601Z,6.20
2022-08-29T07:44:17.216Z,5.20
2022-08-29T07:46:45.628Z,5.70
2022-08-29T07:49:14.033Z,5.60
2022-08-29T07:51:44.231Z,5.70
2022-08-29T07:54:17.108Z,5.90
2022-08-29T07:56:46.943Z,6.80
2022-08-29T07:59:15.546Z,5.70
2022-08-29T08:01:44.554Z,6.50
2022-08-29T08:04:27.622Z,6.70
2022-08-29T08:06:57.349Z,7.10
2022-08-29T08:09:25.363Z,7.20
2022-08-29T08:11:53.648Z,6.80
2022-08-29T08:14:21.656Z,6.20
2022-08-29T08:17:04.135Z,6.30
2022-08-29T08:19:33.496Z,4.90
2022-08-29T08:22:01.432Z,5.40
2022-08-29T08:24:29.824Z,4.90
2022-08-29T08:26:58.214Z,5.30
2022-08-29T08:29:26.497Z,4.80
2022-08-29T08:52:42.791Z,2.40
2022-08-29T08:55:53.104Z,2.70
2022-08-29T08:58:55.102Z,2.10
2022-08-29T09:01:29.261Z,2.50
2022-08-29T09:04:27.199Z,2.40
2022-08-29T09:07:14.959Z,2.30
2022-08-29T09:10:02.854Z,2.00
2022-08-29T09:13:00.854Z,2.00
2022-08-29T09:15:40.452Z,2.10
2022-08-29T09:18:21.846Z,2.00
2022-08-29T09:20:52.058Z,2.00
2022-08-29T09:23:44.435Z,1.70
2022-08-29T09:26:19.911Z,1.80
2022-08-29T09:28:49.704Z,2.00
2022-08-29T09:31:33.297Z,1.50
2022-08-29T09:34:12.093Z,2.00
2022-08-29T09:36:40.554Z,1.90
2022-08-29T09:39:18.985Z,1.50
2022-08-29T09:41:52.456Z,1.80
2022-08-29T09:44:35.578Z,1.80
2022-08-29T09:47:09.743Z,1.50
2022-08-29T09:49:42.186Z,1.30
2022-08-29T09:52:24.177Z,1.40
2022-08-29T09:54:52.433Z,1.20
2022-08-29T09:57:25.012Z,1.20
2022-08-29T10:00:13.865Z,1.30
2022-08-29T10:02:47.895Z,1.20
2022-08-29T10:05:29.149Z,1.30
2022-08-29T10:07:58.269Z,1.00
2022-08-29T10:10:33.193Z,0.90
2022-08-29T10:13:21.354Z,1.30
2022-08-29T10:15:59.537Z,1.40
2022-08-29T10:18:43.479Z,0.90
2022-08-29T10:21:14.377Z,1.10
2022-08-29T10:24:08.007Z,1.70
2022-08-29T10:26:55.204Z,1.20
2022-08-29T10:29:36.418Z,1.50
2022-08-29T10:32:47.670Z,1.60
2022-08-29T10:35:23.225Z,1.50
2022-08-29T10:37:57.120Z,1.40
2022-08-29T10:40:50.720Z,1.10
2022-08-29T10:43:30.946Z,1.30
2022-08-29T10:46:06.419Z,1.30
2022-08-29T10:49:09.046Z,1.70
2022-08-29T10:51:44.153Z,1.70
2022-08-29T10:54:50.052Z,1.70
2022-08-29T10:57:40.343Z,1.60
2022-08-29T11:00:15.100Z,1.70
2022-08-29T11:03:10.515Z,1.50
2022-08-29T11:05:49.746Z,2.20
2022-08-29T11:08:23.064Z,1.60
2022-08-29T11:10:52.670Z,2.10
2022-08-29T11:13:32.943Z,1.30
2022-08-29T11:16:17.742Z,1.30
2022-08-29T11:18:55.310Z,1.70
2022-08-29T11:21:35.316Z,1.50
2022-08-29T11:24:05.746Z,1.80
2022-08-29T11:26:40.155Z,1.50
2022-08-29T11:29:24.728Z,0.90
2022-08-29T11:32:15.251Z,1.60
2022-08-29T11:34:54.074Z,1.60
2022-08-29T11:37:42.439Z,1.50
2022-08-29T11:41:26.304Z,1.70
2022-08-29T11:43:39.256Z,2.10
2022-08-29T11:46:10.721Z,1.30
2022-08-29T11:48:42.022Z,1.20
2022-08-29T11:51:36.107Z,1.10
2022-08-29T11:54:24.909Z,1.40
2022-08-29T11:57:02.638Z,1.50
2022-08-29T11:59:49.373Z,1.00
2022-08-29T12:02:30.520Z,1.40
2022-08-29T12:05:16.772Z,1.40
2022-08-29T12:08:36.003Z,1.20
2022-08-29T12:11:06.874Z,1.10
2022-08-29T12:13:44.148Z,1.30
2022-08-29T12:16:14.697Z,1.50
2022-08-29T12:18:47.023Z,1.10
2022-08-29T12:21:48.885Z,1.10
2022-08-29T12:24:40.114Z,1.50
2022-08-29T12:27:54.700Z,1.30
2022-08-29T12:30:22.769Z,1.40
2022-08-29T12:33:08.183Z,1.20
2022-08-29T12:35:50.366Z,1.40
2022-08-29T12:38:50.162Z,1.50
2022-08-29T12:41:42.338Z,1.10
2022-08-29T12:44:17.142Z,1.00
2022-08-29T12:46:48.680Z,0.90
2022-08-29T12:49:21.237Z,1.20
2022-08-29T12:51:59.042Z,1.00
2022-08-29T12:54:32.832Z,1.50
2022-08-29T12:57:02.894Z,1.10
2022-08-29T12:59:31.060Z,1.00
2022-08-29T13:01:59.741Z,1.30
2022-08-29T13:04:36.556Z,1.20
2022-08-29T13:07:07.996Z,0.90
2022-08-29T13:09:41.844Z,1.00
2022-08-29T13:12:18.148Z,1.10
2022-08-29T13:14:52.552Z,1.20
2022-08-29T13:17:30.745Z,0.90
2022-08-29T13:20:49.151Z,1.30
2022-08-29T13:23:28.019Z,1.10
2022-08-29T13:25:59.288Z,1.30
2022-08-29T13:28:45.575Z,1.10
2022-08-29T13:31:19.731Z,1.20
2022-08-29T13:33:50.940Z,1.40
2022-08-29T13:36:31.061Z,1.00
2022-08-29T13:39:18.322Z,1.20
2022-08-29T13:42:10.404Z,1.00
2022-08-29T13:44:59.130Z,1.00
2022-08-29T13:47:33.229Z,1.00
2022-08-29T13:50:06.110Z,1.20
2022-08-29T13:52:34.569Z,0.90
2022-08-29T13:55:03.459Z,1.20
2022-08-29T13:57:31.781Z,1.10
2022-08-29T14:00:01.234Z,1.30
2022-08-29T14:02:34.664Z,1.30
2022-08-29T14:05:03.004Z,0.90
2022-08-29T14:07:31.824Z,1.40
2022-08-29T14:10:01.350Z,1.20
2022-08-29T14:12:33.836Z,1.30
2022-08-29T14:15:08.994Z,1.00
2022-08-29T14:17:41.964Z,1.00
2022-08-29T14:20:10.738Z,0.80
2022-08-29T14:22:38.999Z,1.20
2022-08-29T14:25:08.364Z,0.70
2022-08-29T14:27:37.252Z,1.00
2022-08-29T14:30:07.159Z,1.20
2022-08-29T14:32:35.933Z,1.20
2022-08-29T14:35:05.382Z,1.30
2022-08-29T14:37:34.866Z,1.10
2022-08-29T14:40:05.416Z,1.60
2022-08-29T14:42:33.401Z,1.10
2022-08-29T14:45:01.713Z,1.10
2022-08-29T14:47:30.188Z,1.10
2022-08-29T14:49:58.165Z,1.20
2022-08-29T14:52:26.583Z,0.90
2022-08-29T14:54:57.375Z,0.90
2022-08-29T14:57:27.497Z,1.60
2022-08-29T14:59:55.471Z,1.40
2022-08-29T15:02:23.658Z,1.30
2022-08-29T15:04:51.562Z,1.30
2022-08-29T15:07:19.680Z,2.00
2022-08-29T15:09:48.024Z,1.40
2022-08-29T15:12:18.061Z,1.40
2022-08-29T15:14:46.407Z,1.10
2022-08-29T15:17:15.485Z,1.10
2022-08-29T15:22:32.636Z,1.10
2022-08-29T15:25:01.138Z,1.20
2022-08-29T15:27:30.082Z,1.30
2022-08-29T15:29:59.752Z,1.20
2022-08-29T15:32:27.792Z,1.10
2022-08-29T15:34:55.570Z,1.40
2022-08-29T15:37:23.692Z,0.90
2022-08-29T15:39:54.552Z,1.10
2022-08-29T15:42:29.899Z,0.70
2022-08-29T15:45:07.987Z,0.80
2022-08-29T15:47:36.605Z,0.70
2022-08-29T15:50:08.410Z,0.60
2022-08-29T15:52:37.583Z,0.70
2022-08-29T15:55:07.366Z,0.80
2022-08-29T15:57:39.577Z,0.70
2022-08-29T16:00:30.610Z,0.70
2022-08-29T16:03:02.828Z,0.80
2022-08-29T16:05:32.678Z,0.80
2022-08-29T16:08:02.380Z,0.80
2022-08-29T16:10:31.739Z,0.90
2022-08-29T16:13:20.489Z,0.60
2022-08-29T16:15:50.308Z,0.70
2022-08-29T16:18:18.689Z,1.00
2022-08-29T16:20:46.675Z,1.00
2022-08-29T16:23:15.527Z,1.00
2022-08-29T16:25:44.322Z,1.00
2022-08-29T16:28:13.528Z,1.00
2022-08-29T16:30:46.078Z,1.00
2022-08-29T16:33:14.758Z,0.80
2022-08-29T16:35:43.283Z,0.90
2022-08-29T16:38:11.936Z,0.80
2022-08-29T16:40:40.403Z,0.70
2022-08-29T16:43:08.598Z,0.80
2022-08-29T16:45:36.877Z,1.00
2022-08-29T16:48:15.726Z,0.80
2022-08-29T16:50:45.209Z,0.70
2022-08-29T16:53:13.421Z,1.10
2022-08-29T16:55:41.202Z,0.90
2022-08-29T16:58:27.996Z,1.20
2022-08-29T17:00:55.995Z,1.10
2022-08-29T17:03:24.133Z,0.90
2022-08-29T17:05:52.212Z,0.80
2022-08-29T17:08:20.193Z,0.90
2022-08-29T17:10:48.058Z,0.90
2022-08-29T17:13:15.846Z,1.10
2022-08-29T17:15:43.894Z,0.80
2022-08-29T17:18:12.002Z,1.30
2022-08-29T17:20:41.573Z,1.00
2022-08-29T17:23:15.960Z,1.20
2022-08-29T17:25:43.992Z,0.90
2022-08-29T17:28:18.071Z,1.20
2022-08-29T17:30:49.127Z,0.90
2022-08-29T17:33:18.873Z,0.90
2022-08-29T17:35:47.400Z,0.80
2022-08-29T17:38:16.237Z,1.00
2022-08-29T17:40:44.650Z,0.80
2022-08-29T17:43:13.259Z,1.10
2022-08-29T17:45:42.007Z,1.00
2022-08-29T17:48:10.178Z,1.20
2022-08-29T17:50:39.260Z,1.00
2022-08-29T17:53:07.530Z,0.90
2022-08-29T17:55:35.421Z,1.60
2022-08-29T17:58:03.589Z,1.10
2022-08-29T18:00:32.320Z,1.50
2022-08-29T18:03:00.311Z,1.40
2022-08-29T18:05:29.176Z,1.30
2022-08-29T18:07:57.725Z,1.10
2022-08-29T18:10:25.762Z,1.40
2022-08-29T18:12:53.793Z,1.20
2022-08-29T18:15:22.247Z,1.50
2022-08-29T18:17:51.577Z,2.00
2022-08-29T18:20:22.079Z,1.70
2022-08-29T18:22:50.402Z,2.00
2022-08-29T18:25:22.702Z,1.90
2022-08-29T18:27:51.093Z,2.00
2022-08-29T18:30:20.529Z,2.10
2022-08-29T18:32:48.986Z,1.90
2022-08-29T18:35:17.299Z,1.80
2022-08-29T18:37:45.225Z,1.70
2022-08-29T18:40:13.700Z,2.50
2022-08-29T18:42:41.839Z,3.50
2022-08-29T18:45:11.418Z,4.20
2022-08-29T18:47:40.704Z,3.70
2022-08-29T18:50:28.642Z,3.30
2022-08-29T18:52:57.361Z,3.10
2022-08-29T18:55:27.936Z,2.60
2022-08-29T18:57:56.398Z,1.70
2022-08-29T19:00:25.246Z,1.50
2022-08-29T19:02:55.232Z,1.60
2022-08-29T19:05:25.059Z,1.30
2022-08-29T19:07:53.484Z,1.90
2022-08-29T19:10:22.784Z,1.40
2022-08-29T19:12:50.723Z,1.20
2022-08-29T19:15:21.484Z,1.40
2022-08-29T19:17:49.919Z,1.30
2022-08-29T19:20:39.670Z,1.40
2022-08-29T19:23:09.205Z,1.20
2022-08-29T19:25:38.507Z,1.40
2022-08-29T19:28:08.554Z,1.20
2022-08-29T19:30:38.322Z,1.30
2022-08-29T19:33:08.338Z,1.30
2022-08-29T19:35:39.085Z,1.30
2022-08-29T19:38:08.265Z,1.20
2022-08-29T19:40:39.238Z,1.40
2022-08-29T19:43:13.667Z,1.00
2022-08-29T19:48:33.558Z,1.10
2022-08-29T19:51:02.199Z,0.90
2022-08-29T19:53:30.279Z,1.10
2022-08-29T19:55:58.597Z,1.20
2022-08-29T19:58:31.599Z,1.60
2022-08-29T20:01:02.119Z,0.90
2022-08-29T20:03:31.220Z,1.30
2022-08-29T20:06:00.322Z,1.10
2022-08-29T20:08:31.429Z,1.40
2022-08-29T20:10:59.893Z,1.40
2022-08-29T20:13:31.575Z,1.40
2022-08-29T20:16:09.233Z,0.80
2022-08-29T20:18:38.368Z,1.70
2022-08-29T20:21:06.535Z,1.40
2022-08-29T20:23:34.686Z,1.50
2022-08-29T20:26:03.157Z,1.50
2022-08-29T20:28:31.759Z,1.20
2022-08-29T20:31:01.180Z,1.30
2022-08-29T20:33:29.249Z,1.50
2022-08-29T20:36:16.084Z,1.30
2022-08-29T20:38:44.715Z,1.60
2022-08-29T20:41:13.492Z,1.40
2022-08-29T20:43:44.132Z,1.70
2022-08-29T20:46:12.859Z,1.40
2022-08-29T20:48:41.110Z,1.80
2022-08-29T20:51:10.405Z,1.60
2022-08-29T20:53:40.555Z,1.70
2022-08-29T20:56:09.418Z,1.70
2022-08-29T20:58:37.621Z,1.40
2022-08-29T21:01:05.926Z,1.70
2022-08-29T21:03:53.089Z,1.90
2022-08-29T21:06:22.158Z,1.90
2022-08-29T21:08:50.788Z,2.10
2022-08-29T21:11:19.242Z,1.70
2022-08-29T21:13:49.060Z,2.40
2022-08-29T21:16:21.067Z,1.40
2022-08-29T21:18:53.538Z,2.00
2022-08-29T21:21:24.826Z,1.60
2022-08-29T21:23:53.647Z,1.70
2022-08-29T21:26:21.647Z,1.60
2022-08-29T21:28:49.871Z,2.10
2022-08-29T21:31:19.605Z,1.60
2022-08-29T21:33:48.254Z,1.80
2022-08-29T21:36:24.615Z,1.60
2022-08-29T21:38:55.252Z,1.40
2022-08-29T21:41:24.684Z,1.80
2022-08-29T21:43:52.757Z,1.60
2022-08-29T21:46:27.416Z,1.70
2022-08-29T21:48:57.499Z,1.40
2022-08-29T21:51:27.111Z,1.50
2022-08-29T21:53:57.266Z,1.50
2022-08-29T21:56:28.247Z,1.70
2022-08-29T21:58:57.277Z,1.40
2022-08-29T22:01:30.150Z,1.40
2022-08-29T22:04:01.178Z,1.40
2022-08-29T22:06:29.997Z,1.50
2022-08-29T22:08:59.578Z,2.20
2022-08-29T22:11:37.681Z,1.70
2022-08-29T22:14:08.073Z,2.00
2022-08-29T22:16:37.160Z,2.10
2022-08-29T22:19:10.055Z,1.40
2022-08-29T22:21:41.721Z,1.90
2022-08-29T22:24:10.973Z,1.50
2022-08-29T22:26:40.941Z,2.00
2022-08-29T22:29:12.029Z,1.60
2022-08-29T22:31:42.677Z,1.60
2022-08-29T22:34:11.896Z,2.50
2022-08-29T22:36:39.815Z,1.50
2022-08-29T22:39:08.259Z,1.60
2022-08-29T22:41:36.538Z,1.60
2022-08-29T22:46:54.695Z,1.40
2022-08-29T22:49:22.719Z,1.80
2022-08-29T22:51:53.195Z,1.50
2022-08-29T22:54:36.773Z,1.90
2022-08-29T22:57:09.079Z,1.70
2022-08-29T22:59:38.107Z,1.50
2022-08-29T23:02:06.600Z,1.60
2022-08-29T23:04:35.978Z,1.70
2022-08-29T23:07:06.141Z,1.80
2022-08-29T23:09:35.164Z,2.30
2022-08-29T23:12:10.983Z,2.00
2022-08-29T23:14:42.411Z,2.20
2022-08-29T23:17:10.732Z,2.50
2022-08-29T23:19:41.222Z,2.00
2022-08-29T23:22:11.269Z,2.40
2022-08-29T23:24:41.605Z,2.60
2022-08-29T23:27:30.064Z,1.90
2022-08-29T23:29:58.990Z,2.00
2022-08-29T23:32:34.253Z,2.00
2022-08-29T23:35:03.863Z,2.30
2022-08-29T23:37:31.939Z,2.30
2022-08-29T23:40:01.483Z,1.80
2022-08-29T23:42:30.559Z,2.00
2022-08-29T23:44:58.656Z,2.10
2022-08-29T23:47:26.557Z,2.20
2022-08-29T23:49:54.739Z,1.90
2022-08-29T23:52:23.145Z,2.80
2022-08-29T23:54:51.098Z,1.70
2022-08-29T23:57:19.156Z,1.90
